createdAt,value
2022-08-29T00:02:41.467Z,12.50
2022-08-29T00:06:43.340Z,12.50
2022-08-29T00:10:46.131Z,12.50
2022-08-29T00:14:47.919Z,12.40
2022-08-29T00:18:49.702Z,12.40
2022-08-29T00:22:51.469Z,12.30
2022-08-29T00:27:01.727Z,12.20
2022-08-29T00:31:03.921Z,12.10
2022-08-29T00:35:14.270Z,12.00
2022-08-29T00:39:16.030Z,11.90
2022-08-29T00:43:20.744Z,11.80
2022-08-29T00:47:36.821Z,11.70
2022-08-29T00:51:41.030Z,11.60
2022-08-29T00:55:50.346Z,11.60
2022-08-29T00:59:53.306Z,11.50
2022-08-29T01:03:55.428Z,11.50
2022-08-29T01:07:57.260Z,11.50
2022-08-29T01:12:17.225Z,11.30
2022-08-29T01:16:20.863Z,11.20
2022-08-29T01:21:00.517Z,11.30
2022-08-29T01:25:12.493Z,11.20
2022-08-29T01:29:15.847Z,11.10
2022-08-29T01:33:17.594Z,11.10
2022-08-29T01:37:19.941Z,11.00
2022-08-29T01:41:22.719Z,11.00
2022-08-29T01:45:24.559Z,10.90
2022-08-29T01:49:27.501Z,10.80
2022-08-29T01:53:29.234Z,10.80
2022-08-29T01:57:30.942Z,10.70
2022-08-29T02:01:46.508Z,10.60
2022-08-29T02:05:48.410Z,10.60
2022-08-29T02:09:50.752Z,10.70
2022-08-29T02:13:57.204Z,10.50
2022-08-29T02:17:58.904Z,10.40
2022-08-29T02:22:02.535Z,10.40
2022-08-29T02:26:05.843Z,10.30
2022-08-29T02:30:07.841Z,10.30
2022-08-29T02:34:10.427Z,10.20
2022-08-29T02:38:13.957Z,10.20
2022-08-29T02:42:15.776Z,10.20
2022-08-29T02:46:19.290Z,10.20
2022-08-29T02:50:21.795Z,10.10
2022-08-29T02:54:23.572Z,10.10
2022-08-29T02:58:26.010Z,10.10
2022-08-29T03:02:27.844Z,10.00
2022-08-29T03:06:29.682Z,9.90
2022-08-29T03:10:31.508Z,9.90
2022-08-29T03:14:33.297Z,9.90
2022-08-29T03:18:35.172Z,9.90
2022-08-29T03:22:37.696Z,9.90
2022-08-29T03:26:39.685Z,9.80
2022-08-29T03:30:42.725Z,9.80
2022-08-29T03:34:44.520Z,9.80
2022-08-29T03:38:48.235Z,9.80
2022-08-29T03:42:50.215Z,9.70
2022-08-29T03:46:51.994Z,9.70
2022-08-29T03:50:56.409Z,9.70
2022-08-29T03:54:58.446Z,9.70
2022-08-29T03:59:01.579Z,9.60
2022-08-29T04:03:03.503Z,9.70
2022-08-29T04:07:09.885Z,9.70
2022-08-29T04:11:14.072Z,9.60
2022-08-29T04:15:16.397Z,9.60
2022-08-29T04:19:19.370Z,9.60
2022-08-29T04:23:21.151Z,9.50
2022-08-29T04:27:22.978Z,9.50
2022-08-29T04:31:24.742Z,9.50
2022-08-29T04:35:26.480Z,9.40
2022-08-29T04:39:28.297Z,9.50
2022-08-29T04:43:29.980Z,9.50
2022-08-29T04:47:31.765Z,9.40
2022-08-29T04:51:36.715Z,9.50
2022-08-29T04:55:38.454Z,9.50
2022-08-29T04:59:41.539Z,9.50
2022-08-29T05:03:44.164Z,9.50
2022-08-29T05:07:46.461Z,9.50
2022-08-29T05:11:48.827Z,9.50
2022-08-29T05:15:50.685Z,9.60
2022-08-29T05:19:53.241Z,9.70
2022-08-29T05:24:05.191Z,9.70
2022-08-29T05:28:14.985Z,9.80
2022-08-29T05:32:25.934Z,9.90
2022-08-29T05:36:27.703Z,10.00
2022-08-29T05:40:29.665Z,10.10
2022-08-29T05:44:35.233Z,10.20
2022-08-29T05:48:40.783Z,10.30
2022-08-29T05:52:43.812Z,10.40
2022-08-29T05:56:45.567Z,10.50
2022-08-29T06:00:48.079Z,10.70
2022-08-29T06:04:50.117Z,10.80
2022-08-29T06:08:53.432Z,11.00
2022-08-29T06:12:55.308Z,11.30
2022-08-29T06:16:57.137Z,11.50
2022-08-29T06:20:58.824Z,11.80
2022-08-29T06:25:00.705Z,12.10
2022-08-29T06:29:09.572Z,12.30
2022-08-29T06:33:11.628Z,12.70
2022-08-29T06:37:13.351Z,12.90
2022-08-29T06:41:16.864Z,13.10
2022-08-29T06:45:25.911Z,13.20
2022-08-29T06:49:27.918Z,13.50
2022-08-29T06:53:32.241Z,13.60
2022-08-29T06:57:34.480Z,13.70
2022-08-29T07:01:36.302Z,13.90
2022-08-29T07:05:38.164Z,14.00
2022-08-29T07:09:39.870Z,14.10
2022-08-29T07:13:41.820Z,14.20
2022-08-29T07:17:43.576Z,14.30
2022-08-29T07:21:45.464Z,14.50
2022-08-29T07:25:47.229Z,14.70
2022-08-29T07:29:50.754Z,14.90
2022-08-29T07:33:54.428Z,15.00
2022-08-29T07:38:05.622Z,15.20
2022-08-29T07:42:07.581Z,15.40
2022-08-29T07:46:14.636Z,15.60
2022-08-29T07:50:16.972Z,15.80
2022-08-29T07:54:19.326Z,15.90
2022-08-29T07:58:21.024Z,16.00
2022-08-29T08:02:22.806Z,16.20
2022-08-29T08:06:27.194Z,16.30
2022-08-29T08:10:29.452Z,16.50
2022-08-29T08:14:35.323Z,16.80
2022-08-29T08:18:38.413Z,17.10
2022-08-29T08:22:40.161Z,17.10
2022-08-29T08:26:41.892Z,17.20
2022-08-29T08:30:43.766Z,17.10
2022-08-29T08:34:45.595Z,17.30
2022-08-29T08:38:48.427Z,17.30
2022-08-29T08:42:50.574Z,17.60
2022-08-29T08:46:58.158Z,17.60
2022-08-29T08:51:23.476Z,17.70
2022-08-29T08:55:42.532Z,17.70
2022-08-29T08:59:46.687Z,17.70
2022-08-29T09:04:32.120Z,18.10
2022-08-29T09:08:50.633Z,18.10
2022-08-29T09:13:25.360Z,18.70
2022-08-29T09:17:41.240Z,18.70
2022-08-29T09:21:55.312Z,18.90
2022-08-29T09:25:58.031Z,19.10
2022-08-29T09:30:15.775Z,19.20
2022-08-29T09:34:50.836Z,19.10
2022-08-29T09:39:36.708Z,19.00
2022-08-29T09:43:50.326Z,19.50
2022-08-29T09:48:14.281Z,20.80
2022-08-29T09:52:38.172Z,21.70
2022-08-29T09:57:00.056Z,22.30
2022-08-29T10:01:11.688Z,23.00
2022-08-29T10:05:41.406Z,22.50
2022-08-29T10:09:54.788Z,23.50
2022-08-29T10:14:14.542Z,22.80
2022-08-29T10:18:35.162Z,22.30
2022-08-29T10:22:44.633Z,23.10
2022-08-29T10:27:01.200Z,24.30
2022-08-29T10:31:12.891Z,23.90
2022-08-29T10:35:35.111Z,24.60
2022-08-29T10:39:48.117Z,22.60
2022-08-29T10:44:10.034Z,21.90
2022-08-29T10:48:57.419Z,21.70
2022-08-29T10:53:14.889Z,21.40
2022-08-29T10:57:22.810Z,21.00
2022-08-29T11:01:34.378Z,21.70
2022-08-29T11:05:45.965Z,21.70
2022-08-29T11:09:52.043Z,21.50
2022-08-29T11:14:05.359Z,21.60
2022-08-29T11:18:29.853Z,21.10
2022-08-29T11:22:39.759Z,20.90
2022-08-29T11:26:55.515Z,21.10
2022-08-29T11:31:20.596Z,21.20
2022-08-29T11:35:31.895Z,21.60
2022-08-29T11:39:50.372Z,21.80
2022-08-29T11:43:55.473Z,21.40
2022-08-29T11:47:57.596Z,21.50
2022-08-29T11:52:08.246Z,21.80
2022-08-29T11:56:12.714Z,22.20
2022-08-29T12:00:32.616Z,22.60
2022-08-29T12:04:54.604Z,23.20
2022-08-29T12:09:13.177Z,23.20
2022-08-29T12:13:50.725Z,23.60
2022-08-29T12:18:21.999Z,23.40
2022-08-29T12:22:46.688Z,23.20
2022-08-29T12:26:48.704Z,22.90
2022-08-29T12:31:12.072Z,22.80
2022-08-29T12:35:26.548Z,23.30
2022-08-29T12:39:40.258Z,23.40
2022-08-29T12:43:45.494Z,23.20
2022-08-29T12:48:08.785Z,23.20
2022-08-29T12:52:35.196Z,23.50
2022-08-29T12:56:47.925Z,23.50
2022-08-29T13:00:52.838Z,23.70
2022-08-29T13:04:55.230Z,23.50
2022-08-29T13:08:57.724Z,23.70
2022-08-29T13:13:08.503Z,23.80
2022-08-29T13:17:19.727Z,24.10
2022-08-29T13:21:25.461Z,24.30
2022-08-29T13:25:27.303Z,24.30
2022-08-29T13:29:38.620Z,23.90
2022-08-29T13:34:06.631Z,23.40
2022-08-29T13:38:23.862Z,23.80
2022-08-29T13:42:30.286Z,23.80
2022-08-29T13:46:32.249Z,23.90
2022-08-29T13:50:37.227Z,24.00
2022-08-29T13:54:43.000Z,24.10
2022-08-29T13:58:44.742Z,24.00
2022-08-29T14:02:46.609Z,23.80
2022-08-29T14:06:48.793Z,23.80
2022-08-29T14:10:52.031Z,24.10
2022-08-29T14:14:53.944Z,24.40
2022-08-29T14:18:55.776Z,24.10
2022-08-29T14:22:57.708Z,24.60
2022-08-29T14:27:01.958Z,24.50
2022-08-29T14:31:04.242Z,24.80
2022-08-29T14:35:06.743Z,24.80
2022-08-29T14:39:08.821Z,24.40
2022-08-29T14:43:11.033Z,24.20
2022-08-29T14:47:13.216Z,24.50
2022-08-29T14:51:14.987Z,24.60
2022-08-29T14:55:17.725Z,24.30
2022-08-29T14:59:21.012Z,24.00
2022-08-29T15:03:23.037Z,23.80
2022-08-29T15:07:24.812Z,23.80
2022-08-29T15:11:26.567Z,23.60
2022-08-29T15:15:29.625Z,23.80
2022-08-29T15:20:15.878Z,23.60
2022-08-29T15:23:53.463Z,23.60
2022-08-29T15:27:55.249Z,23.20
2022-08-29T15:32:02.896Z,23.10
2022-08-29T15:36:04.971Z,23.00
2022-08-29T15:40:12.758Z,22.90
2022-08-29T15:44:15.249Z,22.90
2022-08-29T15:48:17.605Z,22.90
2022-08-29T15:52:19.892Z,22.90
2022-08-29T15:56:21.779Z,23.00
2022-08-29T16:00:29.855Z,23.10
2022-08-29T16:04:32.572Z,22.90
2022-08-29T16:08:34.827Z,22.80
2022-08-29T16:12:37.066Z,22.80
2022-08-29T16:16:39.736Z,22.90
2022-08-29T16:20:41.762Z,22.80
2022-08-29T16:24:51.008Z,22.60
2022-08-29T16:28:53.207Z,22.50
2022-08-29T16:32:56.092Z,22.50
2022-08-29T16:36:59.264Z,22.50
2022-08-29T16:41:15.292Z,22.60
2022-08-29T16:45:17.127Z,22.60
2022-08-29T16:49:20.067Z,22.60
2022-08-29T16:53:22.014Z,22.50
2022-08-29T16:57:24.420Z,22.60
2022-08-29T17:01:30.107Z,22.60
2022-08-29T17:05:32.351Z,22.50
2022-08-29T17:09:34.368Z,22.40
2022-08-29T17:13:44.907Z,22.40
2022-08-29T17:17:47.388Z,22.20
2022-08-29T17:21:49.693Z,22.10
2022-08-29T17:25:51.478Z,21.90
2022-08-29T17:29:53.336Z,21.90
2022-08-29T17:33:55.201Z,21.80
2022-08-29T17:37:57.965Z,21.70
2022-08-29T17:41:59.691Z,21.50
2022-08-29T17:46:03.841Z,21.40
2022-08-29T17:50:06.199Z,21.30
2022-08-29T17:54:12.058Z,21.20
2022-08-29T17:58:15.029Z,21.00
2022-08-29T18:02:17.009Z,20.90
2022-08-29T18:06:19.104Z,20.60
2022-08-29T18:10:22.089Z,20.40
2022-08-29T18:14:25.380Z,20.20
2022-08-29T18:18:27.125Z,20.00
2022-08-29T18:22:29.451Z,19.90
2022-08-29T18:26:31.840Z,19.70
2022-08-29T18:30:33.803Z,19.50
2022-08-29T18:34:35.553Z,19.30
2022-08-29T18:38:37.439Z,19.20
2022-08-29T18:42:41.493Z,19.00
2022-08-29T18:46:47.845Z,18.80
2022-08-29T18:50:50.874Z,18.60
2022-08-29T18:54:53.509Z,18.40
2022-08-29T18:58:58.631Z,18.30
2022-08-29T19:03:02.208Z,18.00
2022-08-29T19:07:05.312Z,17.80
2022-08-29T19:11:07.966Z,17.70
2022-08-29T19:15:11.175Z,17.50
2022-08-29T19:19:13.472Z,17.30
2022-08-29T19:23:16.560Z,17.20
2022-08-29T19:27:41.856Z,17.10
2022-08-29T19:31:41.690Z,17.00
2022-08-29T19:35:45.010Z,16.80
2022-08-29T19:39:46.844Z,16.70
2022-08-29T19:43:48.740Z,16.60
2022-08-29T19:47:59.345Z,16.60
2022-08-29T19:52:02.077Z,16.50
2022-08-29T19:56:03.915Z,16.40
2022-08-29T20:00:13.483Z,16.30
2022-08-29T20:04:15.624Z,16.20
2022-08-29T20:08:18.837Z,16.10
2022-08-29T20:12:23.068Z,16.00
2022-08-29T20:16:31.855Z,15.90
2022-08-29T20:20:35.948Z,15.80
2022-08-29T20:24:37.714Z,15.70
2022-08-29T20:28:40.908Z,15.60
2022-08-29T20:32:44.479Z,15.50
2022-08-29T20:37:06.372Z,15.40
2022-08-29T20:41:08.378Z,15.30
2022-08-29T20:45:10.722Z,15.20
2022-08-29T20:49:14.769Z,15.10
2022-08-29T20:53:31.454Z,15.10
2022-08-29T20:57:34.027Z,15.00
2022-08-29T21:01:36.067Z,15.00
2022-08-29T21:05:44.623Z,15.00
2022-08-29T21:09:50.234Z,15.00
2022-08-29T21:13:53.453Z,15.00
2022-08-29T21:17:55.290Z,15.00
2022-08-29T21:21:59.226Z,15.00
2022-08-29T21:26:01.816Z,15.00
2022-08-29T21:30:04.196Z,15.00
2022-08-29T21:34:10.476Z,15.10
2022-08-29T21:38:12.299Z,15.00
2022-08-29T21:42:14.686Z,14.90
2022-08-29T21:46:24.289Z,14.80
2022-08-29T21:50:26.333Z,14.90
2022-08-29T21:54:28.225Z,14.80
2022-08-29T21:58:29.939Z,14.70
2022-08-29T22:02:31.909Z,14.70
2022-08-29T22:06:36.252Z,14.70
2022-08-29T22:10:38.859Z,14.70
2022-08-29T22:14:59.384Z,14.70
2022-08-29T22:19:06.046Z,14.70
2022-08-29T22:23:08.583Z,14.70
2022-08-29T22:27:10.405Z,14.80
2022-08-29T22:31:13.094Z,14.90
2022-08-29T22:35:15.106Z,15.10
2022-08-29T22:39:16.803Z,15.20
2022-08-29T22:43:19.035Z,15.30
2022-08-29T22:47:20.804Z,15.40
2022-08-29T22:51:26.257Z,15.50
2022-08-29T22:59:29.467Z,15.70
2022-08-29T23:03:32.086Z,15.90
2022-08-29T23:07:34.341Z,16.00
2022-08-29T23:11:36.742Z,16.20
2022-08-29T23:15:38.617Z,16.40
2022-08-29T23:19:41.406Z,16.50
2022-08-29T23:23:44.830Z,16.60
2022-08-29T23:27:46.610Z,16.80
2022-08-29T23:31:48.763Z,16.90
2022-08-29T23:35:50.579Z,17.30
2022-08-29T23:39:52.581Z,17.60
2022-08-29T23:43:54.324Z,17.60
2022-08-29T23:47:56.106Z,17.60
2022-08-29T23:51:57.854Z,17.60
2022-08-29T23:56:02.055Z,17.60
